Kaprifol — 5BXX2 — position and weather

sailwx.info

Track history (hours):
 
Tides and Currents Weather Stations Pressure Air Temp Water Temp Dewpoint Dewpoint Depression Visibility Wind Speed Wind Dir Waves Ship Positions

Kaprifol

Last reported at 2018-Feb-23 02:55 UTC. Time now 2018-Feb-23 10:50 UTC.
Position N 63°60' E 008°27'.

Length 89 m; draft 5.1 m.

Type: Tanker. MMSI: 210445000.

Date/timePositionNaut miles runAvg speedWind from/ knotsBaromVisibWave heightAir tempDewpointWater temp
2018-Feb-23 02:55N 63°60' E 008°27'511.7
2018-Feb-23 02:30N 63°56' E 008°20'611.3
2018-Feb-23 02:00N 63°51' E 008°12'611.3
2018-Feb-23 01:30N 63°47' E 008°04'611.3
2018-Feb-23 01:00N 63°43' E 007°56'611.2
2018-Feb-23 00:30N 63°38' E 007°49'611.8
2018-Feb-22 23:59N 63°33' E 007°41'612.1
2018-Feb-22 23:30N 63°28' E 007°35'510.6
2018-Feb-22 23:00N 63°23' E 007°33'611.1
2018-Feb-22 22:30N 63°17' E 007°36'510.4
2018-Feb-22 22:00N 63°13' E 007°44'610.4
2018-Feb-22 21:24N 63°07' E 007°41'4 9.7
2018-Feb-22 21:00N 63°03' E 007°40'0 0.1
2018-Feb-22 18:02N 63°03' E 007°40'0 0.0
2018-Feb-22 17:59N 63°03' E 007°40'0 0.0
2018-Feb-22 17:29N 63°03' E 007°40'0 0.0
2018-Feb-22 16:59N 63°03' E 007°40'0 0.0
2018-Feb-22 16:29N 63°03' E 007°40'0 0.4
2018-Feb-22 16:00N 63°03' E 007°40'4 8.7
2018-Feb-22 15:31N 63°08' E 007°40'5 9.9
2018-Feb-22 15:00N 63°11' E 007°48'5 9.8
2018-Feb-22 14:30N 63°14' E 007°57'5 9.9
2018-Feb-22 14:00N 63°16' E 008°07'5 9.6
2018-Feb-22 13:30N 63°19' E 008°16'5 9.7
2018-Feb-22 13:00N 63°22' E 008°24'510.0
2018-Feb-22 12:30N 63°25' E 008°34'510.0
2018-Feb-22 12:00N 63°26' E 008°44'510.0
2018-Feb-22 11:29N 63°28' E 008°55'5 9.8
2018-Feb-22 11:00N 63°30' E 009°05'5 9.7
2018-Feb-22 10:30N 63°32' E 009°14'5 9.8
2018-Feb-22 10:00N 63°37' E 009°16'5 9.5
2018-Feb-22 09:30N 63°42' E 009°17'5 9.4
2018-Feb-22 09:00N 63°45' E 009°26'5 9.4
2018-Feb-22 08:30N 63°48' E 009°34'2 4.5
2018-Feb-22 08:00N 63°49' E 009°38'0 0.0
2018-Feb-22 07:29N 63°49' E 009°38'0 0.0
2018-Feb-22 06:59N 63°49' E 009°38'0 0.0
2018-Feb-22 06:29N 63°49' E 009°38'0 0.0
2018-Feb-22 05:59N 63°49' E 009°38'0 0.0
2018-Feb-22 05:29N 63°49' E 009°38'0 0.0
2018-Feb-22 04:59N 63°49' E 009°38'0 0.0
2018-Feb-22 04:29N 63°49' E 009°38'0 0.0
2018-Feb-22 03:59N 63°49' E 009°38'0 0.0
2018-Feb-22 03:29N 63°49' E 009°38'0 0.0
2018-Feb-22 02:59N 63°49' E 009°38'0 0.0
2018-Feb-22 02:29N 63°49' E 009°38'0 0.0
2018-Feb-22 01:59N 63°49' E 009°38'0 0.0
2018-Feb-22 01:29N 63°49' E 009°38'0 0.0
2018-Feb-22 00:59N 63°49' E 009°38'0 0.0
2018-Feb-22 00:29N 63°49' E 009°38'0 0.0
2018-Feb-21 23:59N 63°49' E 009°38'0 0.0
2018-Feb-21 23:29N 63°49' E 009°38'0 0.0
2018-Feb-21 22:59N 63°49' E 009°38'0 0.0
2018-Feb-21 22:29N 63°49' E 009°38'0 0.0
2018-Feb-21 21:59N 63°49' E 009°38'0 0.0
2018-Feb-21 21:29N 63°49' E 009°38'0 0.0
2018-Feb-21 20:59N 63°49' E 009°38'0 0.0
2018-Feb-21 20:29N 63°49' E 009°38'0 0.0
2018-Feb-21 19:59N 63°49' E 009°38'0 0.0
2018-Feb-21 19:29N 63°49' E 009°38'0 0.0
2018-Feb-21 18:59N 63°49' E 009°38'1 2.9
2018-Feb-21 18:30N 63°48' E 009°35'510.0
2018-Feb-21 18:00N 63°45' E 009°27'510.7
2018-Feb-21 17:30N 63°42' E 009°17'3 6.8
2018-Feb-21 17:00N 63°39' E 009°16'5 9.1
2018-Feb-21 16:30N 63°43' E 009°15'510.0
2018-Feb-21 16:00N 63°48' E 009°15'5 9.7
2018-Feb-21 15:30N 63°53' E 009°16'510.0
2018-Feb-21 15:00N 63°57' E 009°22'510.2
2018-Feb-21 14:30N 64°02' E 009°28'510.5
2018-Feb-21 14:01N 64°06' E 009°35'510.4
2018-Feb-21 13:30N 64°11' E 009°31'  
2018-Feb-17 14:33N 65°04' W 013°25'1 9.1
2018-Feb-17 14:29N 65°03' W 013°25'5 9.7
2018-Feb-17 14:00N 64°59' W 013°26'510.1
2018-Feb-17 13:30N 64°54' W 013°30'510.3
2018-Feb-17 13:00N 64°49' W 013°35'510.6
2018-Feb-17 12:30N 64°44' W 013°40'  
Track history (hours):
 
Tides and Currents Weather Stations Pressure Air Temp Water Temp Dewpoint Dewpoint Depression Visibility Wind Speed Wind Dir Waves Ship Positions

Kaprifol

Last reported at 2018-Feb-23 02:55 UTC. Time now 2018-Feb-23 10:50 UTC.
Position N 63°60' E 008°27'.

Length 89 m; draft 5.1 m.

Type: Tanker. MMSI: 210445000.

Date/timePositionNaut miles runAvg speedWind from/ knotsBaromVisibWave heightAir tempDewpointWater temp
2018-Feb-23 02:55N 63°60' E 008°27'511.7
2018-Feb-23 02:30N 63°56' E 008°20'611.3
2018-Feb-23 02:00N 63°51' E 008°12'611.3
2018-Feb-23 01:30N 63°47' E 008°04'611.3
2018-Feb-23 01:00N 63°43' E 007°56'611.2
2018-Feb-23 00:30N 63°38' E 007°49'611.8
2018-Feb-22 23:59N 63°33' E 007°41'612.1
2018-Feb-22 23:30N 63°28' E 007°35'510.6
2018-Feb-22 23:00N 63°23' E 007°33'611.1
2018-Feb-22 22:30N 63°17' E 007°36'510.4
2018-Feb-22 22:00N 63°13' E 007°44'610.4
2018-Feb-22 21:24N 63°07' E 007°41'4 9.7
2018-Feb-22 21:00N 63°03' E 007°40'0 0.1
2018-Feb-22 18:02N 63°03' E 007°40'0 0.0
2018-Feb-22 17:59N 63°03' E 007°40'0 0.0
2018-Feb-22 17:29N 63°03' E 007°40'0 0.0
2018-Feb-22 16:59N 63°03' E 007°40'0 0.0
2018-Feb-22 16:29N 63°03' E 007°40'0 0.4
2018-Feb-22 16:00N 63°03' E 007°40'4 8.7
2018-Feb-22 15:31N 63°08' E 007°40'5 9.9
2018-Feb-22 15:00N 63°11' E 007°48'5 9.8
2018-Feb-22 14:30N 63°14' E 007°57'5 9.9
2018-Feb-22 14:00N 63°16' E 008°07'5 9.6
2018-Feb-22 13:30N 63°19' E 008°16'5 9.7
2018-Feb-22 13:00N 63°22' E 008°24'510.0
2018-Feb-22 12:30N 63°25' E 008°34'510.0
2018-Feb-22 12:00N 63°26' E 008°44'510.0
2018-Feb-22 11:29N 63°28' E 008°55'5 9.8
2018-Feb-22 11:00N 63°30' E 009°05'5 9.7
2018-Feb-22 10:30N 63°32' E 009°14'5 9.8
2018-Feb-22 10:00N 63°37' E 009°16'5 9.5
2018-Feb-22 09:30N 63°42' E 009°17'5 9.4
2018-Feb-22 09:00N 63°45' E 009°26'5 9.4
2018-Feb-22 08:30N 63°48' E 009°34'2 4.5
2018-Feb-22 08:00N 63°49' E 009°38'0 0.0
2018-Feb-22 07:29N 63°49' E 009°38'0 0.0
2018-Feb-22 06:59N 63°49' E 009°38'0 0.0
2018-Feb-22 06:29N 63°49' E 009°38'0 0.0
2018-Feb-22 05:59N 63°49' E 009°38'0 0.0
2018-Feb-22 05:29N 63°49' E 009°38'0 0.0
2018-Feb-22 04:59N 63°49' E 009°38'0 0.0
2018-Feb-22 04:29N 63°49' E 009°38'0 0.0
2018-Feb-22 03:59N 63°49' E 009°38'0 0.0
2018-Feb-22 03:29N 63°49' E 009°38'0 0.0
2018-Feb-22 02:59N 63°49' E 009°38'0 0.0
2018-Feb-22 02:29N 63°49' E 009°38'0 0.0
2018-Feb-22 01:59N 63°49' E 009°38'0 0.0
2018-Feb-22 01:29N 63°49' E 009°38'0 0.0
2018-Feb-22 00:59N 63°49' E 009°38'0 0.0
2018-Feb-22 00:29N 63°49' E 009°38'0 0.0
2018-Feb-21 23:59N 63°49' E 009°38'0 0.0
2018-Feb-21 23:29N 63°49' E 009°38'0 0.0
2018-Feb-21 22:59N 63°49' E 009°38'0 0.0
2018-Feb-21 22:29N 63°49' E 009°38'0 0.0
2018-Feb-21 21:59N 63°49' E 009°38'0 0.0
2018-Feb-21 21:29N 63°49' E 009°38'0 0.0
2018-Feb-21 20:59N 63°49' E 009°38'0 0.0
2018-Feb-21 20:29N 63°49' E 009°38'0 0.0
2018-Feb-21 19:59N 63°49' E 009°38'0 0.0
2018-Feb-21 19:29N 63°49' E 009°38'0 0.0
2018-Feb-21 18:59N 63°49' E 009°38'1 2.9
2018-Feb-21 18:30N 63°48' E 009°35'510.0
2018-Feb-21 18:00N 63°45' E 009°27'510.7
2018-Feb-21 17:30N 63°42' E 009°17'3 6.8
2018-Feb-21 17:00N 63°39' E 009°16'5 9.1
2018-Feb-21 16:30N 63°43' E 009°15'510.0
2018-Feb-21 16:00N 63°48' E 009°15'5 9.7
2018-Feb-21 15:30N 63°53' E 009°16'510.0
2018-Feb-21 15:00N 63°57' E 009°22'510.2
2018-Feb-21 14:30N 64°02' E 009°28'510.5
2018-Feb-21 14:01N 64°06' E 009°35'510.4
2018-Feb-21 13:30N 64°11' E 009°31'  
2018-Feb-17 14:33N 65°04' W 013°25'1 9.1
2018-Feb-17 14:29N 65°03' W 013°25'5 9.7
2018-Feb-17 14:00N 64°59' W 013°26'510.1
2018-Feb-17 13:30N 64°54' W 013°30'510.3
2018-Feb-17 13:00N 64°49' W 013°35'510.6
2018-Feb-17 12:30N 64°44' W 013°40'  

Dump ship's entire track history